Time;durP1;ratioP1;P1;durP2;ratioP2;P2;SDS_P1;SDS_P2;PMS_P1;PMS_P2;Temp;Humidity;BMP_temperature;BMP_pressure;BME280_temperature;BME280_humidity;BME280_pressure;Samples;Min_cycle;Max_cycle;Signal;HPM_P1;HPM_P2
2022/10/05 00:02:13;;;;;;;;;;;15.70;99.90;;;;;;4991667;28;19936;-69
2022/10/05 00:04:39;;;;;;;;;;;15.70;99.90;;;;;;4990099;28;19926;-69
2022/10/05 00:07:11;;;;;;;;;;;15.60;99.90;;;;;;4991744;28;19949;-70
2022/10/05 00:09:37;;;;;;;;;;;15.70;99.90;;;;;;4991244;28;19929;-69
2022/10/05 00:12:12;;;;;;;;;;;15.70;99.90;;;;;;4991435;28;20039;-69
2022/10/05 00:14:38;;;;;;;;;;;15.70;99.90;;;;;;4991174;28;20294;-72
2022/10/05 00:17:03;;;;;;;;;;;15.70;99.90;;;;;;4990552;28;19925;-70
2022/10/05 00:19:32;;;;;;;;;;;15.70;99.90;;;;;;4990080;28;19926;-68
2022/10/05 00:22:15;;;;;;;;;;;15.70;99.90;;;;;;4991327;28;19930;-70
2022/10/05 00:24:41;;;;;;;;;;;15.70;99.90;;;;;;4990895;28;19925;-69
2022/10/05 00:27:17;;;;;;;;;;;15.60;99.90;;;;;;4991302;28;19930;-69
2022/10/05 00:29:43;;;;;;;;;;;15.70;99.90;;;;;;4990011;28;19925;-69
2022/10/05 00:32:09;;;;;;;;;;;15.70;99.90;;;;;;4991169;28;19948;-69
2022/10/05 00:34:35;;;;;;;;;;;15.70;99.90;;;;;;4990760;28;19980;-70
2022/10/05 00:37:00;;;;;;;;;;;15.70;99.90;;;;;;4989941;28;19925;-69
2022/10/05 00:39:26;;;;;;;;;;;15.60;99.90;;;;;;4991165;28;20049;-69
2022/10/05 00:41:54;;;;;;;;;;;15.70;99.90;;;;;;4990633;28;19991;-69
2022/10/05 00:44:26;;;;;;;;;;;15.70;99.90;;;;;;4988825;28;19952;-68
2022/10/05 00:46:58;;;;;;;;;;;15.60;99.90;;;;;;4990315;28;19977;-70
2022/10/05 00:49:23;;;;;;;;;;;15.60;99.90;;;;;;4991007;28;19926;-69
2022/10/05 00:52:06;;;;;;;;;;;15.60;99.90;;;;;;5022287;28;19937;-69
2022/10/05 00:54:42;;;;;;;;;;;15.60;99.90;;;;;;4990439;28;19926;-70
2022/10/05 00:57:20;;;;;;;;;;;15.60;99.90;;;;;;4990929;28;19956;-68
2022/10/05 00:59:51;;;;;;;;;;;15.60;99.90;;;;;;4990375;28;20020;-69
2022/10/05 01:02:29;;;;;;;;;;;15.60;99.90;;;;;;4989511;28;20383;-69
2022/10/05 01:05:13;;;;;;;;;;;15.60;99.90;;;;;;4990363;28;19930;-69
2022/10/05 01:07:38;;;;;;;;;;;15.60;99.90;;;;;;5021601;28;19926;-69
2022/10/05 01:10:23;;;;;;;;;;;15.60;99.90;;;;;;4990498;28;19948;-69
2022/10/05 01:12:48;;;;;;;;;;;15.60;99.90;;;;;;4990048;28;19926;-70
2022/10/05 01:15:16;;;;;;;;;;;15.60;99.90;;;;;;4990306;28;19926;-70
2022/10/05 01:17:41;;;;;;;;;;;15.60;99.90;;;;;;4990216;28;20298;-69
2022/10/05 01:20:27;;;;;;;;;;;15.20;99.90;;;;;;4990289;28;19937;-70
2022/10/05 01:22:59;;;;;;;;;;;15.60;99.90;;;;;;4990020;28;19979;-69
2022/10/05 01:25:28;;;;;;;;;;;15.50;99.90;;;;;;4988404;28;19926;-69
2022/10/05 01:27:58;;;;;;;;;;;15.50;99.90;;;;;;4990339;28;19952;-69
2022/10/05 01:30:24;;;;;;;;;;;15.50;99.90;;;;;;4990265;28;19926;-69
2022/10/05 01:32:56;;;;;;;;;;;15.50;99.90;;;;;;4989719;28;19933;-69
2022/10/05 01:35:57;;;;;;;;;;;15.60;99.90;;;;;;4990179;28;19933;-69
2022/10/05 01:38:38;;;;;;;;;;;15.60;99.90;;;;;;5049031;28;20286;-70
2022/10/05 01:41:22;;;;;;;;;;;15.60;99.90;;;;;;4976378;28;20003;-70
2022/10/05 01:43:54;;;;;;;;;;;15.50;99.90;;;;;;4989814;28;19943;-69
2022/10/05 01:46:52;;;;;;;;;;;15.60;99.90;;;;;;4988519;28;19926;-70
2022/10/05 01:49:33;;;;;;;;;;;15.60;99.90;;;;;;5011076;28;20393;-69
2022/10/05 01:52:07;;;;;;;;;;;15.60;99.90;;;;;;4989716;28;19926;-70
2022/10/05 01:54:52;;;;;;;;;;;15.60;99.90;;;;;;4990030;28;20301;-69
2022/10/05 01:57:17;;;;;;;;;;;15.50;99.90;;;;;;4989868;28;19930;-68
2022/10/05 01:59:56;;;;;;;;;;;15.50;99.90;;;;;;4989596;28;19926;-69
2022/10/05 02:02:22;;;;;;;;;;;15.50;99.90;;;;;;4988475;28;20256;-70
2022/10/05 02:04:50;;;;;;;;;;;15.50;99.90;;;;;;4988222;28;19930;-69
2022/10/05 02:07:26;;;;;;;;;;;15.60;99.90;;;;;;4988757;28;19933;-69
2022/10/05 02:09:59;;;;;;;;;;;15.50;99.90;;;;;;4989428;28;19980;-70
2022/10/05 02:12:28;;;;;;;;;;;15.50;99.90;;;;;;4989799;28;19926;-70
2022/10/05 02:14:55;;;;;;;;;;;15.50;99.90;;;;;;4989329;28;19980;-69
2022/10/05 02:17:24;;;;;;;;;;;15.50;99.90;;;;;;4989557;28;19971;-69
2022/10/05 02:19:51;;;;;;;;;;;15.50;99.90;;;;;;4988292;28;19926;-70
2022/10/05 02:22:20;;;;;;;;;;;15.50;99.90;;;;;;5005085;28;20561;-70
2022/10/05 02:25:01;;;;;;;;;;;15.50;99.90;;;;;;4989498;28;19926;-69
2022/10/05 02:27:29;;;;;;;;;;;15.50;99.90;;;;;;4989700;28;19937;-69
2022/10/05 02:30:02;;;;;;;;;;;15.40;99.90;;;;;;4989297;28;19972;-69
2022/10/05 02:32:33;;;;;;;;;;;15.40;99.90;;;;;;4988669;28;20008;-70
2022/10/05 02:35:03;;;;;;;;;;;15.40;99.90;;;;;;4989116;28;19926;-69
2022/10/05 02:37:38;;;;;;;;;;;15.40;99.90;;;;;;4989633;28;19949;-70
2022/10/05 02:40:13;;;;;;;;;;;15.40;99.90;;;;;;4988421;28;19934;-69
2022/10/05 02:42:46;;;;;;;;;;;15.40;99.90;;;;;;4989150;28;19944;-68
2022/10/05 02:45:14;;;;;;;;;;;15.40;99.90;;;;;;4988846;28;19926;-69
2022/10/05 02:47:52;;;;;;;;;;;15.40;99.90;;;;;;4987397;28;19926;-70
2022/10/05 02:50:23;;;;;;;;;;;15.40;99.90;;;;;;4988908;28;20081;-70
2022/10/05 02:52:54;;;;;;;;;;;15.40;99.90;;;;;;4988718;28;20338;-70
2022/10/05 02:55:46;;;;;;;;;;;15.40;99.90;;;;;;4989137;28;19932;-72
2022/10/05 02:58:13;;;;;;;;;;;15.40;99.90;;;;;;5011020;28;20020;-69
2022/10/05 03:00:47;;;;;;;;;;;15.40;99.90;;;;;;4989002;28;19925;-68
2022/10/05 03:03:18;;;;;;;;;;;15.40;99.90;;;;;;4988720;28;20012;-70
2022/10/05 03:06:04;;;;;;;;;;;15.40;99.90;;;;;;4988966;28;19926;-70
2022/10/05 03:08:34;;;;;;;;;;;15.40;99.90;;;;;;4990758;28;19926;-70
2022/10/05 03:11:12;;;;;;;;;;;15.40;99.90;;;;;;4991976;28;20289;-69
2022/10/05 03:13:47;;;;;;;;;;;15.40;99.90;;;;;;4992276;28;19930;-69
2022/10/05 03:16:31;;;;;;;;;;;15.40;99.90;;;;;;4991875;28;20020;-69
2022/10/05 03:18:59;;;;;;;;;;;15.40;99.90;;;;;;4991898;28;19929;-70
2022/10/05 03:21:36;;;;;;;;;;;15.40;99.90;;;;;;4992159;28;19926;-69
2022/10/05 03:24:17;;;;;;;;;;;15.40;99.90;;;;;;4992145;28;19979;-70
2022/10/05 03:26:42;;;;;;;;;;;15.40;99.90;;;;;;4992275;28;19930;-70
2022/10/05 03:29:18;;;;;;;;;;;15.40;99.90;;;;;;4991548;28;19933;-70
2022/10/05 03:32:03;;;;;;;;;;;15.40;99.90;;;;;;4991722;28;20464;-69
2022/10/05 03:34:33;;;;;;;;;;;15.40;99.90;;;;;;4991300;28;19965;-70
2022/10/05 03:37:06;;;;;;;;;;;15.40;99.90;;;;;;5023408;28;20396;-69
2022/10/05 03:39:37;;;;;;;;;;;15.40;99.90;;;;;;4991987;28;19994;-69
2022/10/05 03:42:21;;;;;;;;;;;15.40;99.90;;;;;;4991763;28;19979;-70
2022/10/05 03:44:47;;;;;;;;;;;15.70;99.90;;;;;;4991785;28;19930;-69
2022/10/05 03:47:24;;;;;;;;;;;15.40;99.90;;;;;;4990197;28;20359;-69
2022/10/05 03:50:01;;;;;;;;;;;15.40;99.90;;;;;;4991035;28;19926;-69
2022/10/05 03:52:27;;;;;;;;;;;15.40;99.90;;;;;;4991695;28;19991;-70
2022/10/05 03:54:56;;;;;;;;;;;15.40;99.90;;;;;;4991576;28;19977;-69
2022/10/05 03:57:24;;;;;;;;;;;15.40;99.90;;;;;;4991736;28;19937;-70
2022/10/05 04:00:03;;;;;;;;;;;15.40;99.90;;;;;;4991806;28;19932;-69
2022/10/05 04:02:39;;;;;;;;;;;15.40;99.90;;;;;;4991640;28;20008;-69
2022/10/05 04:05:34;;;;;;;;;;;15.50;99.90;;;;;;4991222;28;19925;-69
2022/10/05 04:08:17;;;;;;;;;;;15.50;99.90;;;;;;5003464;28;19932;-69
2022/10/05 04:10:45;;;;;;;;;;;15.40;99.90;;;;;;4991681;28;19926;-69
2022/10/05 04:13:13;;;;;;;;;;;15.40;99.90;;;;;;4991056;28;19925;-69
2022/10/05 04:15:42;;;;;;;;;;;15.40;99.90;;;;;;4991570;28;20465;-69
2022/10/05 04:18:34;;;;;;;;;;;15.40;99.90;;;;;;4990917;28;20390;-69
2022/10/05 04:21:03;;;;;;;;;;;15.40;99.90;;;;;;5013138;28;19933;-70
2022/10/05 04:23:37;;;;;;;;;;;15.40;99.90;;;;;;4991294;28;19965;-70
2022/10/05 04:26:05;;;;;;;;;;;15.40;99.90;;;;;;4990852;28;19926;-69
2022/10/05 04:28:30;;;;;;;;;;;15.40;99.90;;;;;;4991372;28;19979;-70
2022/10/05 04:30:56;;;;;;;;;;;15.40;99.90;;;;;;4990197;28;20367;-70
2022/10/05 04:33:21;;;;;;;;;;;15.00;99.90;;;;;;4990627;28;20394;-69
2022/10/05 04:36:05;;;;;;;;;;;15.30;99.90;;;;;;4989974;28;20367;-69
2022/10/05 04:38:47;;;;;;;;;;;15.30;99.90;;;;;;4991253;28;20012;-69
2022/10/05 04:41:26;;;;;;;;;;;15.30;99.90;;;;;;4990902;28;19926;-69
2022/10/05 04:44:10;;;;;;;;;;;15.30;99.90;;;;;;4990013;28;19925;-70
2022/10/05 04:46:39;;;;;;;;;;;15.30;99.90;;;;;;4990657;28;19980;-70
2022/10/05 04:49:20;;;;;;;;;;;15.30;99.90;;;;;;4990703;28;19979;-70
2022/10/05 04:52:14;;;;;;;;;;;15.30;99.90;;;;;;4990925;28;19925;-70
2022/10/05 04:54:43;;;;;;;;;;;15.30;99.90;;;;;;5042861;28;20038;-70
2022/10/05 04:57:15;;;;;;;;;;;15.30;99.90;;;;;;4990190;28;19925;-69
2022/10/05 04:59:57;;;;;;;;;;;15.30;99.90;;;;;;4990556;28;19926;-69
2022/10/05 05:02:37;;;;;;;;;;;15.30;99.90;;;;;;4990059;28;20423;-69
2022/10/05 05:05:05;;;;;;;;;;;15.30;99.90;;;;;;4990813;28;20282;-70
2022/10/05 05:07:34;;;;;;;;;;;15.30;99.90;;;;;;4990549;28;19977;-70
2022/10/05 05:09:59;;;;;;;;;;;15.20;99.90;;;;;;4990629;28;20336;-69
2022/10/05 05:12:31;;;;;;;;;;;15.30;99.90;;;;;;4990355;28;19987;-69
2022/10/05 05:15:17;;;;;;;;;;;15.30;99.90;;;;;;4990609;28;19929;-68
2022/10/05 05:17:51;;;;;;;;;;;15.30;99.90;;;;;;5021917;28;20318;-68
2022/10/05 05:20:32;;;;;;;;;;;15.20;99.90;;;;;;4988807;28;20291;-70
2022/10/05 05:22:57;;;;;;;;;;;15.20;99.90;;;;;;4990247;28;19937;-69
2022/10/05 05:25:29;;;;;;;;;;;15.20;99.90;;;;;;4988647;28;19925;-69
2022/10/05 05:28:04;;;;;;;;;;;15.20;99.90;;;;;;4989061;28;19926;-69
2022/10/05 05:30:51;;;;;;;;;;;15.20;99.90;;;;;;4988015;28;20397;-69
2022/10/05 05:33:22;;;;;;;;;;;15.20;99.90;;;;;;4989427;28;20402;-69
2022/10/05 05:35:47;;;;;;;;;;;15.20;99.90;;;;;;4989901;28;19930;-69
2022/10/05 05:38:22;;;;;;;;;;;15.20;99.90;;;;;;4989737;28;19979;-69
2022/10/05 05:40:53;;;;;;;;;;;15.20;99.90;;;;;;4989748;28;19930;-69
2022/10/05 05:43:24;;;;;;;;;;;15.20;99.90;;;;;;4989673;28;20310;-69
2022/10/05 05:45:57;;;;;;;;;;;15.20;99.90;;;;;;4989983;28;19926;-69
2022/10/05 05:48:27;;;;;;;;;;;15.20;99.90;;;;;;4989555;28;19933;-69
2022/10/05 05:51:28;;;;;;;;;;;15.20;99.90;;;;;;4988790;28;20302;-69
2022/10/05 05:53:58;;;;;;;;;;;15.20;99.90;;;;;;5049136;28;20039;-69
2022/10/05 05:56:31;;;;;;;;;;;15.20;99.90;;;;;;4995735;28;19948;-69
2022/10/05 05:59:03;;;;;;;;;;;15.20;99.90;;;;;;4989950;28;19933;-69
2022/10/05 06:01:31;;;;;;;;;;;15.20;99.90;;;;;;4988446;28;20348;-68
2022/10/05 06:03:56;;;;;;;;;;;15.20;99.90;;;;;;4989710;28;20370;-68
2022/10/05 06:06:29;;;;;;;;;;;15.20;99.90;;;;;;4989006;28;19977;-71
2022/10/05 06:09:01;;;;;;;;;;;15.20;99.90;;;;;;4989744;28;19992;-70
2022/10/05 06:11:49;;;;;;;;;;;15.20;99.90;;;;;;4988410;28;19930;-68
2022/10/05 06:14:17;;;;;;;;;;;15.20;99.90;;;;;;4989385;28;19974;-70
2022/10/05 06:16:48;;;;;;;;;;;15.20;99.90;;;;;;4988114;28;20379;-68
2022/10/05 06:19:15;;;;;;;;;;;15.20;99.90;;;;;;4989500;28;20020;-70
2022/10/05 06:21:46;;;;;;;;;;;15.20;99.90;;;;;;4989724;28;20026;-71
2022/10/05 06:24:24;;;;;;;;;;;15.20;99.90;;;;;;4989283;28;19932;-69
2022/10/05 06:27:07;;;;;;;;;;;15.20;99.90;;;;;;4988759;28;19995;-69
2022/10/05 06:29:38;;;;;;;;;;;15.30;99.90;;;;;;4988082;28;19979;-67
2022/10/05 06:32:23;;;;;;;;;;;15.30;99.90;;;;;;4988257;28;19926;-67
2022/10/05 06:35:00;;;;;;;;;;;15.30;99.90;;;;;;5021005;28;19964;-69
2022/10/05 06:37:44;;;;;;;;;;;15.30;99.90;;;;;;4988664;28;20043;-71
2022/10/05 06:40:18;;;;;;;;;;;15.30;99.90;;;;;;5020900;28;19932;-69
2022/10/05 06:42:46;;;;;;;;;;;15.30;99.90;;;;;;4990474;28;20322;-68
2022/10/05 06:45:12;;;;;;;;;;;15.30;99.90;;;;;;4992444;28;19926;-68
2022/10/05 06:47:48;;;;;;;;;;;15.30;99.90;;;;;;4990804;28;19949;-68
2022/10/05 06:50:33;;;;;;;;;;;15.30;99.90;;;;;;4991791;28;19926;-68
2022/10/05 06:53:17;;;;;;;;;;;15.30;99.90;;;;;;4992813;28;20386;-67
2022/10/05 06:55:45;;;;;;;;;;;15.30;99.90;;;;;;4992556;28;19933;-67
2022/10/05 06:58:11;;;;;;;;;;;15.30;99.90;;;;;;4991569;28;19987;-67
2022/10/05 07:00:44;;;;;;;;;;;15.30;99.90;;;;;;4992308;28;19930;-67
2022/10/05 07:03:28;;;;;;;;;;;15.30;99.90;;;;;;5024352;28;19925;-69
2022/10/05 07:06:01;;;;;;;;;;;15.30;99.90;;;;;;4992655;28;19926;-69
2022/10/05 07:08:39;;;;;;;;;;;15.30;99.90;;;;;;4974693;28;19972;-67
2022/10/05 07:11:23;;;;;;;;;;;15.30;99.90;;;;;;4991464;28;20281;-68
2022/10/05 07:13:55;;;;;;;;;;;15.40;99.90;;;;;;4992496;28;20036;-67
2022/10/05 07:16:47;;;;;;;;;;;15.40;99.90;;;;;;4991626;28;19975;-69
2022/10/05 07:19:16;;;;;;;;;;;15.40;99.90;;;;;;5023317;28;19956;-68
2022/10/05 07:21:57;;;;;;;;;;;15.40;99.90;;;;;;4991978;28;19981;-68
2022/10/05 07:24:32;;;;;;;;;;;15.50;99.90;;;;;;4992209;28;19934;-72
2022/10/05 07:27:03;;;;;;;;;;;15.50;99.90;;;;;;4992353;28;19929;-69
2022/10/05 07:29:35;;;;;;;;;;;15.50;99.90;;;;;;4991811;28;19948;-68
2022/10/05 07:32:21;;;;;;;;;;;15.60;99.90;;;;;;4991122;28;20275;-68
2022/10/05 07:34:59;;;;;;;;;;;15.60;99.90;;;;;;4991030;28;19926;-69
2022/10/05 07:40:36;;;;;;;;;;;15.60;99.90;;;;;;4991157;28;19980;-68
2022/10/05 07:43:02;;;;;;;;;;;15.60;99.90;;;;;;4992171;28;19926;-68
2022/10/05 07:45:49;;;;;;;;;;;15.60;99.90;;;;;;4990387;28;20287;-70
2022/10/05 07:48:19;;;;;;;;;;;15.70;99.90;;;;;;4991954;28;19926;-69
2022/10/05 07:50:57;;;;;;;;;;;15.70;99.90;;;;;;4991814;28;20229;-68
2022/10/05 07:53:34;;;;;;;;;;;15.70;99.90;;;;;;4990505;28;20401;-66
2022/10/05 07:56:02;;;;;;;;;;;15.80;99.90;;;;;;4990828;28;20070;-68
2022/10/05 07:58:34;;;;;;;;;;;15.80;99.90;;;;;;4990224;28;20279;-73
2022/10/05 08:01:07;;;;;;;;;;;15.80;99.90;;;;;;4990433;28;19926;-70
2022/10/05 08:03:58;;;;;;;;;;;15.90;99.90;;;;;;4991575;28;19925;-69
2022/10/05 08:06:38;;;;;;;;;;;15.90;99.90;;;;;;5013356;28;19932;-71
2022/10/05 08:09:21;;;;;;;;;;;15.90;99.90;;;;;;5023426;28;19926;-69
2022/10/05 08:12:05;;;;;;;;;;;16.00;99.90;;;;;;4991214;28;19926;-70
2022/10/05 08:14:39;;;;;;;;;;;16.10;99.90;;;;;;4991322;28;19925;-69
2022/10/05 08:17:08;;;;;;;;;;;16.20;99.90;;;;;;4990602;28;20024;-69
2022/10/05 08:19:40;;;;;;;;;;;16.20;99.90;;;;;;4990938;28;19925;-69
2022/10/05 08:22:08;;;;;;;;;;;16.20;99.90;;;;;;4991538;28;20276;-69
2022/10/05 08:24:34;;;;;;;;;;;16.20;99.90;;;;;;4991041;28;19926;-70
2022/10/05 08:27:29;;;;;;;;;;;16.20;99.90;;;;;;4991468;28;19933;-69
2022/10/05 08:29:58;;;;;;;;;;;16.20;99.90;;;;;;5042310;28;20015;-69
2022/10/05 08:32:25;;;;;;;;;;;16.30;99.90;;;;;;4991251;28;20013;-68
2022/10/05 08:35:09;;;;;;;;;;;16.30;99.90;;;;;;4991084;28;19965;-68
2022/10/05 08:37:38;;;;;;;;;;;16.40;99.90;;;;;;4990020;28;20012;-70
2022/10/05 08:40:35;;;;;;;;;;;16.50;99.90;;;;;;4991253;28;19977;-69
2022/10/05 08:43:04;;;;;;;;;;;16.50;99.90;;;;;;4990322;28;20423;-68
2022/10/05 08:45:29;;;;;;;;;;;16.50;99.90;;;;;;4989966;28;19980;-69
2022/10/05 08:48:10;;;;;;;;;;;16.60;99.90;;;;;;4989321;28;19977;-68
2022/10/05 08:51:05;;;;;;;;;;;16.60;99.90;;;;;;4989727;28;19930;-70
2022/10/05 08:53:49;;;;;;;;;;;16.70;99.90;;;;;;4990756;28;20378;-69
2022/10/05 08:56:24;;;;;;;;;;;16.80;99.90;;;;;;5022785;28;19933;-68
2022/10/05 08:58:50;;;;;;;;;;;17.00;99.90;;;;;;4990640;28;19926;-71
2022/10/05 09:01:30;;;;;;;;;;;17.00;99.90;;;;;;4990709;28;19933;-70
2022/10/05 09:04:05;;;;;;;;;;;17.10;99.90;;;;;;4989459;28;19937;-71
2022/10/05 09:06:49;;;;;;;;;;;17.20;99.90;;;;;;4989906;28;19926;-73
2022/10/05 09:09:27;;;;;;;;;;;17.40;99.90;;;;;;4989139;28;19926;-70
2022/10/05 09:11:53;;;;;;;;;;;17.20;99.90;;;;;;4989331;28;19926;-72
2022/10/05 09:14:30;;;;;;;;;;;17.20;99.90;;;;;;4989743;28;19925;-72
2022/10/05 09:17:19;;;;;;;;;;;17.30;99.90;;;;;;4989290;28;20347;-72
2022/10/05 09:19:52;;;;;;;;;;;17.40;99.90;;;;;;4990501;28;19926;-72
2022/10/05 09:22:20;;;;;;;;;;;17.50;99.90;;;;;;4990542;28;19936;-72
2022/10/05 09:24:52;;;;;;;;;;;17.50;99.90;;;;;;4989925;28;20361;-73
2022/10/05 09:27:18;;;;;;;;;;;17.60;99.90;;;;;;4990547;28;19926;-71
2022/10/05 09:29:59;;;;;;;;;;;17.70;99.90;;;;;;5005377;28;19933;-72
2022/10/05 09:32:41;;;;;;;;;;;17.70;99.90;;;;;;4990117;28;20411;-72
2022/10/05 09:35:07;;;;;;;;;;;17.70;99.90;;;;;;4990533;28;19929;-75
2022/10/05 09:37:56;;;;;;;;;;;17.80;99.90;;;;;;4990363;28;19932;-74
2022/10/05 09:40:35;;;;;;;;;;;17.80;99.90;;;;;;4997195;28;19969;-73
2022/10/05 09:43:12;;;;;;;;;;;17.80;99.90;;;;;;4989971;28;19984;-74
2022/10/05 09:45:37;;;;;;;;;;;17.90;99.90;;;;;;4990338;28;20017;-72
2022/10/05 09:48:12;;;;;;;;;;;17.90;99.90;;;;;;4989765;28;20391;-76
2022/10/05 09:50:46;;;;;;;;;;;17.90;99.90;;;;;;4989987;28;19933;-72
2022/10/05 09:53:31;;;;;;;;;;;17.90;99.90;;;;;;4990189;28;19926;-71
2022/10/05 09:56:04;;;;;;;;;;;18.00;99.90;;;;;;4989684;28;19936;-75
2022/10/05 09:58:35;;;;;;;;;;;18.00;99.90;;;;;;4989278;28;19926;-72
2022/10/05 10:01:01;;;;;;;;;;;18.00;99.90;;;;;;4989941;28;19930;-72
2022/10/05 10:03:47;;;;;;;;;;;18.10;99.90;;;;;;4990148;28;19930;-72
2022/10/05 10:06:31;;;;;;;;;;;18.10;99.90;;;;;;5019826;28;20016;-72
2022/10/05 10:08:56;;;;;;;;;;;18.20;99.90;;;;;;4989784;28;19977;-73
2022/10/05 10:11:28;;;;;;;;;;;18.20;99.90;;;;;;4988944;28;19972;-70
2022/10/05 10:13:59;;;;;;;;;;;18.10;99.90;;;;;;4988467;28;19926;-72
2022/10/05 10:16:29;;;;;;;;;;;18.10;99.90;;;;;;4990636;28;19926;-73
2022/10/05 10:19:03;;;;;;;;;;;18.10;99.90;;;;;;4993255;28;19926;-71
2022/10/05 10:21:44;;;;;;;;;;;18.00;99.90;;;;;;4992392;28;19926;-70
2022/10/05 10:24:17;;;;;;;;;;;18.10;99.90;;;;;;4975652;28;19930;-70
2022/10/05 10:26:48;;;;;;;;;;;18.10;99.90;;;;;;4993418;28;19925;-73
2022/10/05 10:29:26;;;;;;;;;;;18.10;99.90;;;;;;4993159;28;19933;-72
2022/10/05 10:31:55;;;;;;;;;;;18.10;99.90;;;;;;4992908;28;19930;-68
2022/10/05 10:34:30;;;;;;;;;;;17.90;99.90;;;;;;4991920;28;19926;-70
2022/10/05 10:37:20;;;;;;;;;;;17.90;99.90;;;;;;4992050;28;19935;-73
2022/10/05 10:39:49;;;;;;;;;;;17.80;99.90;;;;;;4993116;28;20012;-74
2022/10/05 10:42:27;;;;;;;;;;;17.80;99.90;;;;;;4993159;28;19926;-74
2022/10/05 10:44:57;;;;;;;;;;;17.70;99.90;;;;;;4992775;28;19926;-73
2022/10/05 10:47:59;;;;;;;;;;;17.60;99.90;;;;;;4992984;28;19949;-70
2022/10/05 10:50:43;;;;;;;;;;;17.60;99.90;;;;;;5052972;28;19932;-69
2022/10/05 10:53:24;;;;;;;;;;;17.50;99.90;;;;;;4994349;28;19926;-71
2022/10/05 10:55:55;;;;;;;;;;;17.50;99.90;;;;;;4975781;28;19926;-71
2022/10/05 10:58:39;;;;;;;;;;;17.40;99.90;;;;;;4992913;28;20032;-71
2022/10/05 11:01:28;;;;;;;;;;;17.40;99.90;;;;;;4992369;28;19973;-72
2022/10/05 11:04:14;;;;;;;;;;;17.40;99.90;;;;;;4992414;28;19933;-70
2022/10/05 11:06:59;;;;;;;;;;;17.40;99.90;;;;;;5002729;28;19926;-73
2022/10/05 11:09:38;;;;;;;;;;;17.30;99.90;;;;;;4992477;28;19926;-69
2022/10/05 11:12:22;;;;;;;;;;;17.30;99.90;;;;;;4992232;28;19933;-70
2022/10/05 11:15:03;;;;;;;;;;;17.30;99.90;;;;;;4991548;28;19930;-72
2022/10/05 11:17:47;;;;;;;;;;;17.40;99.90;;;;;;4992648;28;19925;-72
2022/10/05 11:20:22;;;;;;;;;;;17.40;99.90;;;;;;4992081;28;19952;-74
2022/10/05 11:22:55;;;;;;;;;;;17.40;99.90;;;;;;4992591;28;19960;-73
2022/10/05 11:25:23;;;;;;;;;;;17.40;99.90;;;;;;4991997;28;20021;-70
2022/10/05 11:27:49;;;;;;;;;;;17.40;99.90;;;;;;4992010;28;19930;-74
2022/10/05 11:30:34;;;;;;;;;;;17.40;99.90;;;;;;4991712;28;19926;-74
2022/10/05 11:33:00;;;;;;;;;;;17.40;99.90;;;;;;4991803;28;19926;-72
2022/10/05 11:35:37;;;;;;;;;;;17.40;99.90;;;;;;4992498;28;19933;-72
2022/10/05 11:38:21;;;;;;;;;;;17.40;99.90;;;;;;4991417;28;19933;-74
2022/10/05 11:41:13;;;;;;;;;;;17.30;99.90;;;;;;4992155;28;19936;-73
2022/10/05 11:43:57;;;;;;;;;;;17.30;99.90;;;;;;4994502;28;19926;-73
2022/10/05 11:46:25;;;;;;;;;;;17.20;99.90;;;;;;4991448;28;20039;-73
2022/10/05 11:49:03;;;;;;;;;;;17.30;99.90;;;;;;4991069;28;19926;-73
2022/10/05 11:51:33;;;;;;;;;;;17.20;99.90;;;;;;4991934;28;19930;-70
2022/10/05 11:54:05;;;;;;;;;;;17.20;99.90;;;;;;4990533;28;19926;-69
2022/10/05 11:56:31;;;;;;;;;;;17.20;99.90;;;;;;4990867;28;19925;-71
2022/10/05 11:58:59;;;;;;;;;;;17.20;99.90;;;;;;4991931;28;19936;-68
2022/10/05 12:01:29;;;;;;;;;;;17.20;99.90;;;;;;4991872;28;20009;-70
2022/10/05 12:04:10;;;;;;;;;;;17.20;99.90;;;;;;4992083;28;19932;-71
2022/10/05 12:06:45;;;;;;;;;;;17.20;99.90;;;;;;4991026;28;20024;-73
2022/10/05 12:09:16;;;;;;;;;;;17.20;99.90;;;;;;4990476;28;19926;-71
2022/10/05 12:11:44;;;;;;;;;;;17.20;99.90;;;;;;4991779;28;20023;-71
2022/10/05 12:14:32;;;;;;;;;;;17.20;99.90;;;;;;4990386;28;19925;-72
2022/10/05 12:17:04;;;;;;;;;;;17.10;99.90;;;;;;4991828;28;19936;-73
2022/10/05 12:19:35;;;;;;;;;;;17.20;99.90;;;;;;4991620;28;19929;-71
2022/10/05 12:22:03;;;;;;;;;;;17.20;99.90;;;;;;4991800;28;19994;-71
2022/10/05 12:24:35;;;;;;;;;;;17.20;99.90;;;;;;4991506;28;20286;-76
2022/10/05 12:27:05;;;;;;;;;;;17.20;99.90;;;;;;4991581;28;20030;-76
2022/10/05 12:29:42;;;;;;;;;;;17.20;99.90;;;;;;4990571;28;20042;-74
2022/10/05 12:32:16;;;;;;;;;;;17.20;99.90;;;;;;4991195;28;19933;-68
2022/10/05 12:35:02;;;;;;;;;;;17.30;99.90;;;;;;4991738;28;20020;-68
2022/10/05 12:37:46;;;;;;;;;;;17.30;99.90;;;;;;5006216;28;20112;-68
2022/10/05 12:40:15;;;;;;;;;;;17.30;99.90;;;;;;4990831;28;20006;-68
2022/10/05 12:42:50;;;;;;;;;;;17.30;99.90;;;;;;4990130;28;19976;-69
2022/10/05 12:45:25;;;;;;;;;;;17.40;99.90;;;;;;5022448;28;20091;-66
2022/10/05 12:47:51;;;;;;;;;;;17.40;99.90;;;;;;4991320;28;19933;-66
2022/10/05 12:50:16;;;;;;;;;;;17.30;99.90;;;;;;4990726;28;19930;-68
2022/10/05 12:52:45;;;;;;;;;;;17.40;99.90;;;;;;4991100;28;19926;-69
2022/10/05 12:55:13;;;;;;;;;;;17.40;99.90;;;;;;4990682;28;19933;-67
2022/10/05 12:57:55;;;;;;;;;;;17.40;99.90;;;;;;4991248;28;19930;-78
2022/10/05 13:00:20;;;;;;;;;;;17.40;99.90;;;;;;5006203;28;20390;-74
2022/10/05 13:02:47;;;;;;;;;;;17.40;99.90;;;;;;4974127;28;19926;-72
2022/10/05 13:05:13;;;;;;;;;;;17.40;99.90;;;;;;4989378;28;19926;-68
2022/10/05 13:07:57;;;;;;;;;;;17.30;99.90;;;;;;4991042;28;19926;-66
2022/10/05 13:10:29;;;;;;;;;;;17.30;99.90;;;;;;4990648;28;20127;-67
2022/10/05 13:12:55;;;;;;;;;;;17.30;99.90;;;;;;4990889;28;19932;-67
2022/10/05 13:15:23;;;;;;;;;;;17.30;99.90;;;;;;4990170;28;20013;-69
2022/10/05 13:17:58;;;;;;;;;;;17.30;99.90;;;;;;4989898;28;20418;-70
2022/10/05 13:20:28;;;;;;;;;;;17.30;99.90;;;;;;4989330;28;19973;-70
2022/10/05 13:23:00;;;;;;;;;;;17.40;99.90;;;;;;4990634;28;19929;-66
2022/10/05 13:25:38;;;;;;;;;;;17.40;99.90;;;;;;4990230;28;19932;-67
2022/10/05 13:28:15;;;;;;;;;;;17.50;99.90;;;;;;4990696;28;19925;-69
2022/10/05 13:30:44;;;;;;;;;;;17.50;99.90;;;;;;4989686;28;19925;-69
2022/10/05 13:33:16;;;;;;;;;;;17.60;99.90;;;;;;5005798;28;20036;-68
2022/10/05 13:35:49;;;;;;;;;;;17.60;99.90;;;;;;4990223;28;19926;-69
2022/10/05 13:38:35;;;;;;;;;;;17.70;99.90;;;;;;4989910;28;19926;-69
2022/10/05 13:41:03;;;;;;;;;;;17.80;99.90;;;;;;4988962;28;19994;-70
2022/10/05 13:43:48;;;;;;;;;;;17.80;99.90;;;;;;4989836;28;20025;-69
2022/10/05 13:46:13;;;;;;;;;;;17.80;99.90;;;;;;4988816;28;19926;-76
2022/10/05 13:48:54;;;;;;;;;;;17.70;99.90;;;;;;4988841;28;19926;-71
2022/10/05 13:51:26;;;;;;;;;;;17.80;99.90;;;;;;4988446;28;19926;-71
2022/10/05 13:53:52;;;;;;;;;;;17.80;99.90;;;;;;4990309;28;20287;-69
2022/10/05 13:56:23;;;;;;;;;;;17.80;99.90;;;;;;4989880;28;19926;-70
2022/10/05 13:59:10;;;;;;;;;;;17.70;99.90;;;;;;4990119;28;19936;-69
2022/10/05 14:01:45;;;;;;;;;;;17.80;99.90;;;;;;4988716;28;20016;-69
2022/10/05 14:04:19;;;;;;;;;;;17.80;99.90;;;;;;5021678;28;19933;-71
2022/10/05 14:06:46;;;;;;;;;;;17.80;99.90;;;;;;4989763;28;19926;-71
2022/10/05 14:09:32;;;;;;;;;;;17.80;99.90;;;;;;4972349;28;20021;-72
2022/10/05 14:12:03;;;;;;;;;;;17.80;99.90;;;;;;4988773;28;19930;-70
2022/10/05 14:14:41;;;;;;;;;;;17.80;99.90;;;;;;4989508;28;20020;-68
2022/10/05 14:17:13;;;;;;;;;;;17.80;99.90;;;;;;4989864;28;20016;-70
2022/10/05 14:19:43;;;;;;;;;;;17.80;99.90;;;;;;4989226;28;20055;-70
2022/10/05 14:22:12;;;;;;;;;;;17.80;99.90;;;;;;4988942;28;19930;-71
2022/10/05 14:24:45;;;;;;;;;;;17.80;99.90;;;;;;4988027;28;20022;-70
2022/10/05 14:27:22;;;;;;;;;;;17.80;99.90;;;;;;4989868;28;20264;-69
2022/10/05 14:29:56;;;;;;;;;;;17.80;99.90;;;;;;4988565;28;19925;-70
2022/10/05 14:32:23;;;;;;;;;;;17.70;99.90;;;;;;4988960;28;19936;-73
2022/10/05 14:34:57;;;;;;;;;;;17.80;99.90;;;;;;4989690;28;19926;-69
2022/10/05 14:37:24;;;;;;;;;;;17.70;99.90;;;;;;4989413;28;19926;-70
2022/10/05 14:39:51;;;;;;;;;;;17.80;99.90;;;;;;4972346;28;20032;-70
2022/10/05 14:42:22;;;;;;;;;;;17.80;99.90;;;;;;4989219;28;19930;-68
2022/10/05 14:45:17;;;;;;;;;;;17.70;99.90;;;;;;4989298;28;20374;-70
2022/10/05 14:47:45;;;;;;;;;;;17.70;99.90;;;;;;5001385;28;19979;-69
2022/10/05 14:50:25;;;;;;;;;;;17.70;99.90;;;;;;4972372;28;19926;-70
2022/10/05 14:53:09;;;;;;;;;;;17.70;99.90;;;;;;4988664;28;19925;-69
2022/10/05 14:55:42;;;;;;;;;;;17.60;99.90;;;;;;4989081;28;19926;-69
2022/10/05 14:58:14;;;;;;;;;;;17.60;99.90;;;;;;4989480;28;20290;-69
2022/10/05 15:00:54;;;;;;;;;;;17.60;99.90;;;;;;4987808;28;19990;-72
2022/10/05 15:03:39;;;;;;;;;;;17.60;99.90;;;;;;4989969;28;20029;-70